Date,TemperatureHighF,TemperatureAvgF,TemperatureLowF,DewpointHighF,DewpointAvgF,DewpointLowF,HumidityHigh,HumidityAvg,HumidityLow,PressureMaxIn,PressureMinIn,WindSpeedMaxMPH,WindSpeedAvgMPH,GustSpeedMaxMPH,PrecipitationSumIn
2013-9-1,93,80,70,76,72,70,100,80,48,0.00,40.00,7,3,13,0.00
2013-9-2,91,80,71,80,74,70,100,84,55,0.00,40.00,9,3,20,0.23
2013-9-3,94,80,73,78,75,72,100,87,52,0.00,40.00,6,3,14,0.02
2013-9-4,93,80,70,76,73,68,100,80,44,0.00,40.00,8,3,14,0.01
2013-9-5,91,79,71,77,74,71,100,85,60,0.00,40.00,8,3,18,0.00
2013-9-6,92,79,70,77,72,69,100,82,49,0.00,40.00,7,2,15,0.00
2013-9-7,94,78,69,74,68,-100,100,77,43,0.00,40.00,7,2,13,0.00
2013-9-8,93,79,66,74,69,65,100,75,42,0.00,40.00,7,2,13,0.00
2013-9-9,92,79,67,73,69,67,100,76,46,0.00,40.00,8,3,14,0.00
2013-9-10,92,81,69,75,71,69,100,74,47,0.00,40.00,8,4,14,0.00
2013-9-11,92,81,72,73,70,65,96,74,43,0.00,40.00,10,4,16,0.00
2013-9-12,93,79,68,74,68,63,100,73,38,0.00,40.00,8,3,14,0.00
2013-9-13,97,78,68,73,69,67,99,80,39,0.00,40.00,13,3,24,0.01
2013-9-14,90,76,67,72,62,-100,99,68,38,0.00,40.00,7,5,15,0.01
2013-9-15,89,76,64,70,65,59,91,72,48,0.00,40.00,6,4,13,0.00
2013-9-16,92,80,69,74,70,66,100,76,43,0.00,40.00,8,4,15,0.00
2013-9-17,94,80,70,70,66,60,98,68,34,0.00,40.00,10,4,17,0.00
2013-9-18,73,71,69,72,68,66,97,90,80,0.00,40.00,4,2,7,0.26
2013-9-19,90,77,71,75,72,70,98,86,56,0.00,40.00,11,6,29,0.76
2013-9-20,90,79,72,78,74,72,100,88,57,0.00,40.00,10,5,18,0.08
2013-9-21,77,71,68,76,69,-100,100,96,92,0.00,40.00,14,4,23,3.11
2013-9-22,82,71,62,69,61,53,99,73,38,0.00,40.00,8,6,16,0.23
2013-9-23,88,74,61,74,66,56,97,75,57,0.00,40.00,8,5,12,0.00
2013-9-24,85,76,69,77,74,69,100,94,75,0.00,40.00,11,5,17,0.20
2013-9-25,89,74,63,73,65,55,100,78,33,0.00,40.00,7,3,16,0.02
2013-9-26,88,73,60,68,63,60,100,77,42,0.00,40.00,6,2,14,0.00
2013-9-27,88,75,65,71,68,64,100,80,51,0.00,40.00,7,4,12,0.00
2013-9-28,87,73,64,67,62,-100,99,75,45,0.00,40.00,7,3,12,0.00
2013-9-29,76,68,61,73,66,60,99,93,82,0.00,40.00,5,2,10,0.05
2013-9-30,85,74,66,73,69,65,98,86,65,0.00,40.00,10,5,16,0.02